Terminal Aerodrome Forecast
Issued by NWS Wilmington, NC

Home | Current Version | Previous Version | Text Only | Print | Product List | Glossary On
Versions: 1 2 3 4 5 6 7 8 9 10 11 12 13 14 15 16 17
000
FTUS42 KILM 050522
TAFMYR
TAF
KMYR 050522Z 0506/0606 21009KT P6SM VCSH SCT045 BKN140
     FM051300 26008KT P6SM FEW040 SCT140 BKN250
     FM051700 19010KT P6SM FEW050 SCT140 SCT250
      AMD LTD TO CLD VIS AND WIND TIL 051100=

USA.gov is the U.S. government's official web portal to all federal, state and local government web resources and services.